Time;durP1;ratioP1;P1;durP2;ratioP2;P2;SDS_P1;SDS_P2;PMS_P1;PMS_P2;Temp;Humidity;BMP_temperature;BMP_pressure;BME280_temperature;BME280_humidity;BME280_pressure;Samples;Min_cycle;Max_cycle;Signal;HPM_P1;HPM_P2
2023/07/25 00:01:17;;;;;;;4.50;3.60;;;17.40;1.00;;;;;;5120093;27;20278;-46
2023/07/25 00:03:43;;;;;;;4.10;3.73;;;17.40;1.00;;;;;;5137475;27;20246;-47
2023/07/25 00:06:09;;;;;;;3.57;3.07;;;17.40;1.00;;;;;;5137152;27;20275;-48
2023/07/25 00:08:35;;;;;;;4.97;3.70;;;17.40;1.00;;;;;;5119824;27;20179;-44
2023/07/25 00:11:00;;;;;;;4.60;3.77;;;17.40;1.00;;;;;;5137134;27;20191;-44
2023/07/25 00:13:26;;;;;;;3.63;3.30;;;17.40;1.00;;;;;;5136951;27;20497;-47
2023/07/25 00:15:52;;;;;;;4.73;3.37;;;17.40;1.00;;;;;;5136027;27;20457;-46
2023/07/25 00:18:18;;;;;;;4.70;3.30;;;17.40;1.00;;;;;;5132965;27;20428;-45
2023/07/25 00:20:44;;;;;;;4.60;3.50;;;17.40;1.00;;;;;;5119706;27;20194;-46
2023/07/25 00:23:09;;;;;;;3.97;3.57;;;17.40;1.00;;;;;;5136967;27;20933;-47
2023/07/25 00:25:35;;;;;;;4.50;3.90;;;17.40;1.00;;;;;;5134780;27;20530;-47
2023/07/25 00:28:01;;;;;;;3.47;3.17;;;17.40;1.00;;;;;;5135391;27;20178;-45
2023/07/25 00:30:26;;;;;;;3.53;3.23;;;17.40;1.00;;;;;;5136095;27;20163;-45
2023/07/25 00:32:52;;;;;;;3.23;2.77;;;17.50;1.00;;;;;;5136208;27;20243;-46
2023/07/25 00:35:18;;;;;;;3.30;3.00;;;17.40;1.00;;;;;;5136254;27;20209;-48
2023/07/25 00:37:43;;;;;;;3.10;2.83;;;17.40;1.00;;;;;;5135840;27;20515;-48
2023/07/25 00:40:10;;;;;;;3.80;2.60;;;17.40;1.00;;;;;;5137120;27;20202;-48
2023/07/25 00:42:35;;;;;;;3.17;2.87;;;17.40;1.00;;;;;;5136990;27;20198;-47
2023/07/25 00:45:01;;;;;;;4.00;3.60;;;17.40;1.00;;;;;;5136564;27;20468;-47
2023/07/25 00:47:27;;;;;;;3.83;3.40;;;17.40;1.00;;;;;;5137037;27;20542;-46
2023/07/25 00:49:53;;;;;;;4.10;3.57;;;17.40;1.00;;;;;;5136704;27;20171;-45
2023/07/25 00:52:18;;;;;;;3.70;3.40;;;17.40;1.00;;;;;;5118302;27;20533;-47
2023/07/25 00:54:49;;;;;;;4.13;3.50;;;17.40;1.00;;;;;;5136522;27;20312;-44
2023/07/25 00:57:18;;;;;;;4.27;3.87;;;17.40;1.00;;;;;;5135709;27;20281;-44
2023/07/25 00:59:44;;;;;;;4.20;3.63;;;17.30;1.00;;;;;;5136476;27;20688;-45
2023/07/25 01:02:12;;;;;;;5.87;3.63;;;17.30;1.00;;;;;;5136355;27;20438;-48
2023/07/25 01:04:38;;;;;;;3.70;3.30;;;17.30;1.00;;;;;;5117443;27;20471;-45
2023/07/25 01:07:08;;;;;;;4.50;3.53;;;17.30;1.00;;;;;;5118145;27;20405;-46
2023/07/25 01:09:38;;;;;;;3.63;3.30;;;17.30;1.00;;;;;;5118262;27;20416;-46
2023/07/25 01:12:05;;;;;;;4.93;4.20;;;17.30;1.00;;;;;;5136316;27;20877;-48
2023/07/25 01:14:34;;;;;;;3.87;3.40;;;17.30;1.00;;;;;;5135827;27;20460;-44
2023/07/25 01:17:11;;;;;;;4.17;3.77;;;17.40;1.00;;;;;;5117977;27;20421;-49
2023/07/25 01:19:39;;;;;;;4.37;3.40;;;17.40;1.00;;;;;;5135857;27;20416;-46
2023/07/25 01:22:06;;;;;;;3.40;3.07;;;17.30;1.00;;;;;;5100507;27;20408;-44
2023/07/25 01:24:32;;;;;;;4.30;3.83;;;17.30;1.00;;;;;;5114563;28;20420;-43
2023/07/25 01:26:58;;;;;;;6.37;3.90;;;17.30;1.00;;;;;;5134637;27;20698;-45
2023/07/25 01:29:24;;;;;;;4.23;3.30;;;17.20;1.00;;;;;;5135669;28;20428;-45
2023/07/25 01:31:49;;;;;;;4.90;4.27;;;17.20;1.00;;;;;;5135909;28;20206;-46
2023/07/25 01:34:15;;;;;;;4.23;3.50;;;17.20;1.00;;;;;;5135512;28;20597;-46
2023/07/25 01:36:41;;;;;;;4.40;4.00;;;17.20;1.00;;;;;;5132732;28;20167;-50
2023/07/25 01:39:07;;;;;;;3.87;3.47;;;17.20;1.00;;;;;;5132175;28;20187;-46
2023/07/25 01:41:33;;;;;;;3.83;3.30;;;17.20;1.00;;;;;;5114362;28;20182;-50
2023/07/25 01:43:58;;;;;;;3.60;3.20;;;17.20;1.00;;;;;;5132845;27;20719;-45
2023/07/25 01:46:24;;;;;;;4.03;3.63;;;17.20;1.00;;;;;;5132994;28;20203;-44
2023/07/25 01:48:50;;;;;;;4.07;3.70;;;17.20;1.00;;;;;;5115390;28;20170;-46
2023/07/25 01:51:15;;;;;;;4.00;3.37;;;17.10;1.00;;;;;;5135435;28;20190;-46
2023/07/25 01:53:41;;;;;;;3.60;3.30;;;17.10;1.00;;;;;;5135967;28;20324;-45
2023/07/25 01:56:07;;;;;;;5.33;3.80;;;17.10;1.00;;;;;;5135050;28;20566;-45
2023/07/25 01:58:32;;;;;;;3.73;3.37;;;17.00;1.00;;;;;;5135600;27;20236;-48
2023/07/25 02:00:59;;;;;;;3.40;3.10;;;17.00;1.00;;;;;;5117616;28;20243;-45
2023/07/25 02:03:26;;;;;;;3.80;3.40;;;17.00;1.00;;;;;;5135399;28;20265;-44
2023/07/25 02:05:51;;;;;;;3.40;3.10;;;17.00;1.00;;;;;;5135577;28;20571;-44
2023/07/25 02:08:17;;;;;;;3.90;3.50;;;16.90;1.00;;;;;;5134918;27;20881;-47
2023/07/25 02:10:43;;;;;;;4.00;3.10;;;16.90;1.00;;;;;;5138336;27;20183;-47
2023/07/25 02:13:08;;;;;;;3.63;3.33;;;16.90;1.00;;;;;;5139539;27;20173;-47
2023/07/25 02:15:36;;;;;;;3.50;3.10;;;16.90;1.00;;;;;;5139063;27;20182;-43
2023/07/25 02:18:02;;;;;;;4.20;3.80;;;16.90;1.00;;;;;;5139602;27;20266;-45
2023/07/25 02:20:31;;;;;;;4.20;3.73;;;16.90;1.00;;;;;;5121078;27;20428;-47
2023/07/25 02:22:57;;;;;;;3.87;3.47;;;17.00;1.00;;;;;;5121027;27;20702;-46
2023/07/25 02:25:24;;;;;;;4.37;3.97;;;17.00;1.00;;;;;;5138286;27;20460;-47
2023/07/25 02:27:49;;;;;;;4.27;3.80;;;17.00;1.00;;;;;;5138824;27;20443;-49
2023/07/25 02:30:15;;;;;;;3.90;3.40;;;17.00;1.00;;;;;;5139224;27;20440;-43
2023/07/25 02:32:41;;;;;;;4.07;3.67;;;17.00;1.00;;;;;;5139274;27;20300;-49
2023/07/25 02:35:06;;;;;;;4.00;3.60;;;17.00;1.00;;;;;;5138905;27;20220;-44
2023/07/25 02:37:32;;;;;;;5.23;3.13;;;17.00;1.00;;;;;;5138426;27;20187;-48
2023/07/25 02:40:32;;;;;;;4.17;3.70;;;17.00;1.00;;;;;;5139365;27;20178;-50
2023/07/25 02:42:57;;;;;;;3.40;3.10;;;17.00;1.00;;;;;;5138680;27;20175;-45
2023/07/25 02:45:23;;;;;;;3.40;3.10;;;17.00;1.00;;;;;;5120590;27;20491;-46
2023/07/25 02:47:48;;;;;;;4.40;4.00;;;16.90;1.00;;;;;;5139143;27;20197;-47
2023/07/25 02:50:14;;;;;;;3.70;3.40;;;16.90;1.00;;;;;;5138739;27;20178;-44
2023/07/25 02:52:41;;;;;;;3.87;3.47;;;16.90;1.00;;;;;;5139134;27;20159;-47
2023/07/25 02:55:07;;;;;;;5.33;4.83;;;16.90;1.00;;;;;;5138199;27;20202;-45
2023/07/25 02:57:32;;;;;;;3.90;2.87;;;16.90;1.00;;;;;;5137775;27;20500;-48
2023/07/25 02:59:58;;;;;;;4.23;3.70;;;16.90;1.00;;;;;;5136712;27;20429;-48
2023/07/25 03:02:24;;;;;;;5.20;3.80;;;16.80;1.00;;;;;;5137895;27;20566;-47
2023/07/25 03:04:49;;;;;;;5.00;3.87;;;16.80;1.00;;;;;;5138520;27;20460;-46
2023/07/25 03:07:15;;;;;;;4.30;3.90;;;16.80;1.00;;;;;;5138684;27;20179;-47
2023/07/25 03:09:41;;;;;;;5.00;4.07;;;16.80;1.00;;;;;;5138414;27;20197;-43
2023/07/25 03:12:07;;;;;;;4.37;3.97;;;16.80;1.00;;;;;;5139075;27;20179;-49
2023/07/25 03:14:32;;;;;;;5.00;3.93;;;16.70;1.00;;;;;;5138896;27;20186;-47
2023/07/25 03:16:58;;;;;;;4.30;3.90;;;16.60;13.00;;;;;;5138330;27;20753;-44
2023/07/25 03:19:24;;;;;;;4.90;4.47;;;16.50;68.40;;;;;;5120040;27;20290;-46
2023/07/25 03:21:50;;;;;;;4.20;3.80;;;16.40;99.90;;;;;;5137382;27;20176;-47
2023/07/25 03:24:16;;;;;;;5.63;4.50;;;16.40;99.90;;;;;;5119707;27;20179;-47
2023/07/25 03:26:42;;;;;;;4.53;3.63;;;16.40;99.90;;;;;;5137609;27;20456;-45
2023/07/25 03:29:07;;;;;;;4.53;4.10;;;16.40;99.90;;;;;;5137213;27;20509;-45
2023/07/25 03:31:33;;;;;;;5.90;4.20;;;16.50;99.90;;;;;;5138369;27;20171;-46
2023/07/25 03:33:59;;;;;;;5.20;4.07;;;16.50;99.90;;;;;;5137550;27;20274;-44
2023/07/25 03:36:25;;;;;;;5.17;4.60;;;16.60;99.90;;;;;;5137533;27;20186;-47
2023/07/25 03:38:50;;;;;;;3.83;3.23;;;16.60;99.90;;;;;;5136775;27;20588;-43
2023/07/25 03:41:16;;;;;;;3.37;2.90;;;16.60;99.90;;;;;;5136245;27;20543;-46
2023/07/25 03:43:42;;;;;;;5.70;4.20;;;16.60;99.90;;;;;;5136014;27;20215;-45
2023/07/25 03:46:07;;;;;;;6.53;4.33;;;16.70;99.90;;;;;;5136093;27;20225;-46
2023/07/25 03:48:33;;;;;;;5.23;4.50;;;16.70;88.60;;;;;;5136086;27;20175;-46
2023/07/25 03:50:59;;;;;;;6.83;5.53;;;16.80;54.10;;;;;;5118865;27;20167;-44
2023/07/25 03:53:26;;;;;;;4.50;4.10;;;16.80;43.50;;;;;;5136921;27;20270;-45
2023/07/25 03:55:51;;;;;;;6.10;4.60;;;16.80;80.20;;;;;;5119370;27;20838;-47
2023/07/25 03:58:17;;;;;;;5.03;4.17;;;16.90;36.90;;;;;;5135833;27;20429;-46
2023/07/25 04:00:43;;;;;;;4.80;4.20;;;16.80;93.70;;;;;;5136256;27;20557;-48
2023/07/25 04:03:08;;;;;;;4.87;3.40;;;16.80;99.00;;;;;;5136951;27;20616;-48
2023/07/25 04:05:34;;;;;;;4.07;3.67;;;16.90;84.30;;;;;;5135796;27;20206;-47
2023/07/25 04:08:00;;;;;;;5.40;4.00;;;16.90;33.50;;;;;;5136929;27;20195;-48
2023/07/25 04:10:26;;;;;;;4.60;4.00;;;17.00;3.00;;;;;;5136427;27;20183;-48
2023/07/25 04:12:52;;;;;;;4.67;3.67;;;17.10;1.00;;;;;;5136912;27;20209;-47
2023/07/25 04:15:17;;;;;;;8.53;4.47;;;17.20;1.00;;;;;;5137311;27;20425;-47
2023/07/25 04:17:43;;;;;;;6.43;4.70;;;17.20;1.00;;;;;;5119043;27;20412;-45
2023/07/25 04:20:09;;;;;;;5.63;3.90;;;17.30;1.00;;;;;;5136630;27;20179;-45
2023/07/25 04:22:35;;;;;;;5.93;4.33;;;17.30;1.00;;;;;;5135913;27;20175;-48
2023/07/25 04:25:00;;;;;;;4.77;4.00;;;17.30;1.00;;;;;;5135383;27;20465;-46
2023/07/25 04:27:28;;;;;;;4.60;3.60;;;17.30;1.00;;;;;;5134319;27;20334;-49
2023/07/25 04:29:54;;;;;;;5.67;4.30;;;17.30;1.00;;;;;;5133728;27;20292;-45
2023/07/25 04:32:19;;;;;;;5.33;3.57;;;17.30;1.00;;;;;;5133258;27;20416;-49
2023/07/25 04:34:45;;;;;;;5.03;4.53;;;17.30;1.00;;;;;;5134455;27;20190;-47
2023/07/25 04:37:11;;;;;;;5.83;4.33;;;17.30;1.00;;;;;;5134966;27;20413;-49
2023/07/25 04:39:36;;;;;;;5.70;3.70;;;17.40;1.00;;;;;;5133685;27;20247;-47
2023/07/25 04:42:02;;;;;;;5.30;4.23;;;17.40;1.00;;;;;;5135212;27;20206;-48
2023/07/25 04:44:28;;;;;;;4.50;4.07;;;17.50;1.00;;;;;;5134185;27;20214;-45
2023/07/25 04:46:53;;;;;;;5.07;4.20;;;17.40;1.00;;;;;;5134778;27;20189;-47
2023/07/25 04:49:19;;;;;;;5.30;4.37;;;17.40;1.00;;;;;;5135020;27;20442;-51
2023/07/25 04:51:45;;;;;;;4.90;4.00;;;17.40;1.00;;;;;;5134304;27;20190;-47
2023/07/25 04:54:11;;;;;;;4.57;4.17;;;17.40;1.00;;;;;;5134603;27;20717;-48
2023/07/25 04:56:38;;;;;;;5.20;4.10;;;17.40;1.00;;;;;;5134106;27;20171;-47
2023/07/25 04:59:03;;;;;;;3.77;3.40;;;17.40;1.00;;;;;;5134765;27;20182;-48
2023/07/25 05:01:29;;;;;;;4.90;4.37;;;17.40;1.00;;;;;;5124222;27;20835;-46
2023/07/25 05:03:54;;;;;;;4.87;4.03;;;17.40;1.00;;;;;;5129481;27;20586;-46
2023/07/25 05:06:20;;;;;;;5.30;4.03;;;17.50;1.00;;;;;;5128075;27;20288;-48
2023/07/25 05:08:46;;;;;;;5.17;4.10;;;17.50;1.00;;;;;;5111678;28;20203;-46
2023/07/25 05:11:13;;;;;;;4.50;4.10;;;17.50;1.00;;;;;;5111750;28;20180;-48
2023/07/25 05:13:39;;;;;;;5.30;4.00;;;17.50;1.00;;;;;;5110675;28;20428;-48
2023/07/25 05:16:05;;;;;;;5.13;4.20;;;17.60;1.00;;;;;;5111712;28;20445;-48
2023/07/25 05:18:30;;;;;;;5.83;4.27;;;17.60;1.00;;;;;;5116261;27;20262;-47
2023/07/25 05:20:56;;;;;;;4.73;3.97;;;17.60;1.00;;;;;;5132505;27;20507;-46
2023/07/25 05:23:21;;;;;;;4.60;4.13;;;17.40;1.00;;;;;;5133866;27;20347;-48
2023/07/25 05:25:47;;;;;;;5.20;4.40;;;17.20;1.00;;;;;;5115430;28;20211;-48
2023/07/25 05:28:13;;;;;;;4.73;4.23;;;16.90;46.70;;;;;;5132293;27;20261;-48
2023/07/25 05:30:39;;;;;;;4.37;3.97;;;16.90;99.90;;;;;;5133395;28;20237;-46
2023/07/25 05:33:07;;;;;;;4.07;3.33;;;16.80;99.90;;;;;;5133957;28;20527;-48
2023/07/25 05:35:33;;;;;;;4.90;4.47;;;16.70;99.90;;;;;;5133057;28;20197;-47
2023/07/25 05:38:00;;;;;;;4.43;4.03;;;16.60;99.90;;;;;;5133137;28;20837;-47
2023/07/25 05:40:26;;;;;;;4.97;3.90;;;16.60;99.90;;;;;;5132063;28;20410;-47
2023/07/25 05:42:52;;;;;;;4.87;4.27;;;16.60;99.90;;;;;;5097664;28;20409;-46
2023/07/25 05:45:18;;;;;;;5.20;4.20;;;16.60;99.90;;;;;;5136218;27;20218;-48
2023/07/25 05:47:43;;;;;;;4.30;3.90;;;16.70;99.90;;;;;;5136221;27;20171;-51
2023/07/25 05:50:09;;;;;;;6.97;4.53;;;16.80;99.90;;;;;;5136208;27;20438;-47
2023/07/25 05:52:38;;;;;;;5.00;4.27;;;16.90;99.90;;;;;;5137009;27;20235;-46
2023/07/25 05:55:04;;;;;;;4.83;4.40;;;16.90;99.90;;;;;;5132489;27;20605;-47
2023/07/25 05:57:30;;;;;;;4.00;3.53;;;17.10;99.90;;;;;;5116628;28;20498;-46
2023/07/25 05:59:55;;;;;;;4.40;3.97;;;17.20;99.90;;;;;;5117230;28;20425;-47
2023/07/25 06:02:21;;;;;;;4.87;4.37;;;17.30;99.90;;;;;;5115803;28;20183;-48
2023/07/25 06:04:47;;;;;;;5.83;5.00;;;17.50;99.90;;;;;;5116105;28;20242;-48
2023/07/25 06:07:15;;;;;;;7.30;4.60;;;17.70;99.90;;;;;;5115857;28;20402;-47
2023/07/25 06:09:41;;;;;;;4.73;4.20;;;17.80;60.40;;;;;;5115908;28;20424;-47
2023/07/25 06:12:10;;;;;;;5.43;4.73;;;17.80;51.30;;;;;;5114889;28;20501;-49
2023/07/25 06:14:36;;;;;;;4.27;3.87;;;17.90;25.10;;;;;;5116265;28;20524;-45
2023/07/25 06:17:02;;;;;;;4.83;4.40;;;18.00;1.00;;;;;;5116634;28;20541;-47
2023/07/25 06:19:29;;;;;;;4.83;4.20;;;17.90;1.00;;;;;;5116135;28;20421;-50
2023/07/25 06:21:55;;;;;;;4.30;3.70;;;17.80;55.10;;;;;;5115987;28;21083;-50
2023/07/25 06:24:22;;;;;;;4.57;4.07;;;17.80;1.00;;;;;;5117468;28;20436;-46
2023/07/25 06:26:47;;;;;;;5.87;4.10;;;17.70;1.00;;;;;;5115944;28;20226;-48
2023/07/25 06:29:13;;;;;;;4.80;4.10;;;17.70;10.80;;;;;;5114160;28;20425;-45
2023/07/25 06:31:40;;;;;;;5.53;3.73;;;17.70;55.20;;;;;;5115869;28;20248;-46
2023/07/25 06:34:06;;;;;;;6.97;4.70;;;17.80;19.20;;;;;;5098146;28;20172;-45
2023/07/25 06:36:31;;;;;;;6.77;4.20;;;17.80;1.00;;;;;;5114660;28;20691;-48
2023/07/25 06:38:57;;;;;;;4.77;4.27;;;17.80;47.70;;;;;;5118154;27;20433;-48
2023/07/25 06:41:23;;;;;;;4.47;3.93;;;18.00;1.00;;;;;;5118002;27;20190;-50
2023/07/25 06:43:48;;;;;;;5.20;3.83;;;18.00;1.00;;;;;;5137205;27;20434;-47
2023/07/25 06:46:14;;;;;;;5.37;4.10;;;18.00;1.00;;;;;;5135756;27;20210;-47
2023/07/25 06:48:40;;;;;;;4.60;4.20;;;18.00;1.00;;;;;;5135790;27;20220;-47
2023/07/25 06:51:06;;;;;;;5.70;4.27;;;18.00;1.00;;;;;;5130733;27;20433;-46
2023/07/25 06:53:31;;;;;;;4.37;3.97;;;17.90;1.00;;;;;;5111164;27;20278;-47
2023/07/25 06:55:57;;;;;;;4.63;3.57;;;17.70;1.00;;;;;;5137151;27;20180;-46
2023/07/25 06:58:23;;;;;;;3.87;3.47;;;17.70;1.70;;;;;;5136274;27;20195;-47
2023/07/25 07:00:49;;;;;;;4.60;4.10;;;17.70;26.30;;;;;;5124178;27;20240;-48
2023/07/25 07:03:15;;;;;;;5.40;4.37;;;17.60;53.40;;;;;;5113405;27;20238;-44
2023/07/25 07:05:41;;;;;;;4.17;3.60;;;17.70;72.10;;;;;;5121786;27;21162;-48
2023/07/25 07:08:08;;;;;;;4.37;3.47;;;17.70;61.20;;;;;;5116190;27;20462;-45
2023/07/25 07:10:34;;;;;;;5.07;3.57;;;17.70;54.80;;;;;;5131964;27;20175;-47
2023/07/25 07:13:00;;;;;;;4.80;3.50;;;17.80;26.50;;;;;;5133374;27;21026;-45
2023/07/25 07:15:26;;;;;;;4.67;3.80;;;17.80;5.30;;;;;;5133387;27;20667;-49
2023/07/25 07:17:52;;;;;;;3.90;3.50;;;17.80;5.90;;;;;;5134032;27;20175;-46
2023/07/25 07:20:18;;;;;;;5.30;4.80;;;17.90;1.00;;;;;;5116286;27;20198;-47
2023/07/25 07:22:44;;;;;;;4.90;3.80;;;18.00;1.00;;;;;;5131225;27;20424;-48
2023/07/25 07:25:09;;;;;;;4.63;3.50;;;18.10;1.00;;;;;;5131784;27;20480;-47
2023/07/25 07:27:35;;;;;;;5.23;3.23;;;18.30;1.00;;;;;;5132994;27;20171;-46
2023/07/25 07:30:02;;;;;;;4.30;3.87;;;18.60;99.90;;;;;;5132235;27;20191;-47
2023/07/25 07:32:28;;;;;;;4.43;3.50;;;18.80;53.40;;;;;;5132355;27;20673;-46
2023/07/25 07:34:53;;;;;;;4.70;3.80;;;18.90;1.00;;;;;;5134056;27;20424;-49
2023/07/25 07:37:19;;;;;;;5.00;3.43;;;18.90;99.90;;;;;;5134867;27;20243;-47
2023/07/25 07:39:45;;;;;;;4.00;3.60;;;19.10;4.20;;;;;;5135383;27;20221;-47
2023/07/25 07:42:11;;;;;;;6.73;3.37;;;19.40;1.00;;;;;;5136691;27;20219;-47
2023/07/25 07:44:36;;;;;;;3.50;3.20;;;19.60;1.00;;;;;;5135073;27;20175;-48
2023/07/25 07:47:02;;;;;;;4.17;2.53;;;19.70;99.90;;;;;;5097595;27;20239;-47
2023/07/25 07:49:28;;;;;;;3.27;2.90;;;19.90;99.90;;;;;;5133007;27;20457;-46
2023/07/25 07:51:54;;;;;;;6.03;3.10;;;20.10;1.00;;;;;;5131278;27;20408;-49
2023/07/25 07:54:20;;;;;;;3.37;3.07;;;20.30;99.90;;;;;;5111643;27;20262;-45
2023/07/25 07:56:45;;;;;;;3.70;3.40;;;20.20;99.90;;;;;;5128243;27;20913;-48
2023/07/25 07:59:11;;;;;;;3.80;3.40;;;20.20;99.90;;;;;;5129687;27;20639;-45
2023/07/25 08:01:37;;;;;;;3.73;3.27;;;20.10;1.00;;;;;;5131203;27;20543;-47
2023/07/25 08:04:02;;;;;;;3.33;3.00;;;19.80;99.90;;;;;;5131614;27;20327;-46
2023/07/25 08:06:28;;;;;;;4.90;3.30;;;19.80;1.00;;;;;;5132860;27;20297;-48
2023/07/25 08:08:54;;;;;;;3.70;3.03;;;19.70;1.00;;;;;;5113820;27;20179;-47
2023/07/25 08:11:19;;;;;;;5.63;2.93;;;19.90;1.00;;;;;;5132419;27;20521;-46
2023/07/25 08:13:45;;;;;;;5.00;3.50;;;20.00;99.90;;;;;;5133280;27;20182;-48
2023/07/25 08:16:11;;;;;;;2.93;2.43;;;20.10;99.90;;;;;;5134208;27;20249;-47
2023/07/25 08:18:36;;;;;;;4.17;3.00;;;20.20;1.00;;;;;;5135303;27;20175;-46
2023/07/25 08:21:02;;;;;;;4.30;3.17;;;20.30;1.00;;;;;;5133291;27;20243;-47
2023/07/25 08:23:28;;;;;;;3.90;3.00;;;20.50;1.00;;;;;;5133830;27;20191;-47
2023/07/25 08:25:55;;;;;;;2.93;2.63;;;20.50;1.00;;;;;;5133601;27;20207;-48
2023/07/25 08:28:21;;;;;;;5.03;2.60;;;20.20;99.90;;;;;;5134722;27;20481;-47
2023/07/25 08:30:47;;;;;;;3.70;2.07;;;19.80;99.90;;;;;;5113296;27;20420;-48
2023/07/25 08:33:15;;;;;;;2.57;2.37;;;19.50;4.20;;;;;;5131761;27;20258;-47
2023/07/25 08:35:41;;;;;;;4.03;2.90;;;19.50;1.00;;;;;;5114992;27;20756;-48
2023/07/25 08:38:07;;;;;;;3.70;2.50;;;19.20;99.90;;;;;;5132671;27;20437;-46
2023/07/25 08:40:32;;;;;;;3.50;2.40;;;19.20;1.00;;;;;;5132866;27;20417;-45
2023/07/25 08:43:03;;;;;;;4.17;2.60;;;19.00;1.00;;;;;;5131216;27;20171;-45
2023/07/25 08:45:30;;;;;;;4.07;2.93;;;18.90;1.00;;;;;;5131997;27;20199;-46
2023/07/25 08:47:56;;;;;;;4.57;2.70;;;18.70;99.90;;;;;;5132773;27;20452;-45
2023/07/25 08:50:22;;;;;;;2.87;2.20;;;18.40;99.90;;;;;;5098973;27;20905;-48
2023/07/25 08:52:52;;;;;;;4.23;2.83;;;18.20;1.00;;;;;;5115806;27;20487;-45
2023/07/25 08:55:19;;;;;;;3.97;2.40;;;18.10;1.00;;;;;;5134014;27;20491;-47
2023/07/25 08:57:46;;;;;;;4.73;2.40;;;17.90;1.00;;;;;;5134636;27;20465;-50
2023/07/25 09:00:13;;;;;;;5.30;1.80;;;17.80;1.00;;;;;;5114848;27;20452;-46
2023/07/25 09:02:39;;;;;;;3.43;2.10;;;17.70;1.00;;;;;;5131910;27;21014;-45
2023/07/25 09:05:06;;;;;;;5.93;2.43;;;17.50;1.00;;;;;;5131457;27;20503;-45
2023/07/25 09:07:31;;;;;;;5.13;3.00;;;17.40;1.00;;;;;;5132459;27;20477;-45
2023/07/25 09:09:58;;;;;;;7.50;2.40;;;17.50;1.00;;;;;;5132501;27;20405;-44
2023/07/25 09:12:24;;;;;;;3.07;2.00;;;17.60;1.00;;;;;;5115373;27;20262;-46
2023/07/25 09:14:51;;;;;;;3.93;2.90;;;17.70;1.00;;;;;;5112457;27;20779;-43
2023/07/25 09:17:19;;;;;;;4.63;2.50;;;18.00;1.00;;;;;;5112986;28;20416;-45
2023/07/25 09:19:47;;;;;;;3.57;2.13;;;18.40;1.00;;;;;;5114141;27;20710;-49
2023/07/25 09:22:29;;;;;;;3.20;2.17;;;18.90;1.00;;;;;;5133024;27;20433;-46
2023/07/25 09:24:54;;;;;;;4.40;1.90;;;19.10;99.90;;;;;;5132074;27;20470;-45
2023/07/25 09:27:20;;;;;;;3.40;2.27;;;19.30;99.90;;;;;;5129850;27;20416;-47
2023/07/25 09:29:50;;;;;;;2.83;1.93;;;19.30;1.00;;;;;;5128972;27;20175;-45
2023/07/25 09:32:23;;;;;;;3.00;2.40;;;19.30;1.00;;;;;;5111766;28;20268;-46
2023/07/25 09:34:58;;;;;;;4.13;2.20;;;19.50;99.90;;;;;;5132042;28;20515;-47
2023/07/25 09:37:24;;;;;;;4.17;1.93;;;19.70;32.50;;;;;;5132816;28;20515;-49
2023/07/25 09:39:50;;;;;;;3.30;2.43;;;20.00;38.10;;;;;;5129905;28;20396;-48
2023/07/25 09:42:19;;;;;;;4.70;2.30;;;20.10;1.00;;;;;;5112744;28;20466;-46
2023/07/25 09:44:48;;;;;;;3.77;2.40;;;20.10;99.90;;;;;;5131707;28;20179;-45
2023/07/25 09:47:23;;;;;;;3.87;2.33;;;20.40;1.00;;;;;;5133450;28;20516;-46
2023/07/25 09:49:50;;;;;;;2.53;2.10;;;20.60;1.00;;;;;;5129717;28;20433;-46
2023/07/25 09:52:19;;;;;;;3.30;1.90;;;20.70;1.00;;;;;;5114874;28;20431;-45
2023/07/25 09:54:45;;;;;;;2.40;1.87;;;20.80;99.90;;;;;;5113664;28;20521;-46
2023/07/25 09:57:10;;;;;;;2.83;1.67;;;20.60;1.00;;;;;;5094148;28;20889;-45
2023/07/25 09:59:36;;;;;;;3.03;1.77;;;20.60;99.90;;;;;;5092554;28;20172;-47
2023/07/25 10:02:03;;;;;;;2.30;1.73;;;20.60;1.00;;;;;;5120382;28;20320;-46
2023/07/25 10:04:29;;;;;;;2.60;2.03;;;20.60;12.20;;;;;;5110279;28;20477;-45
2023/07/25 10:06:59;;;;;;;2.83;1.47;;;20.60;1.00;;;;;;5109046;28;20489;-47
2023/07/25 10:09:25;;;;;;;2.73;1.93;;;20.50;99.90;;;;;;5129082;28;20432;-46
2023/07/25 10:11:56;;;;;;;3.70;2.03;;;20.60;1.00;;;;;;5132193;28;20773;-48
2023/07/25 10:14:22;;;;;;;2.37;1.80;;;20.60;99.90;;;;;;5133499;28;20179;-46
2023/07/25 10:16:48;;;;;;;2.10;1.60;;;20.70;99.90;;;;;;5098556;28;20465;-47
2023/07/25 10:19:14;;;;;;;3.77;1.87;;;20.50;99.90;;;;;;5114219;28;20485;-47
2023/07/25 10:21:51;;;;;;;1.87;1.63;;;21.00;1.00;;;;;;5132511;28;20416;-47
2023/07/25 10:24:18;;;;;;;2.63;2.00;;;21.30;61.80;;;;;;5132166;28;20229;-47
2023/07/25 10:26:57;;;;;;;4.20;2.03;;;21.60;1.00;;;;;;5131923;28;20496;-47
2023/07/25 10:29:42;;;;;;;1.80;1.53;;;21.80;99.90;;;;;;5127017;28;20426;-45
2023/07/25 10:32:22;;;;;;;3.07;1.83;;;21.70;99.90;;;;;;5132538;27;20420;-48
2023/07/25 10:34:51;;;;;;;3.83;2.03;;;21.60;99.90;;;;;;5133195;27;20503;-48
2023/07/25 10:37:28;;;;;;;2.77;1.90;;;21.10;99.90;;;;;;5114189;27;20408;-46
2023/07/25 10:40:12;;;;;;;2.10;1.90;;;20.50;1.00;;;;;;5131896;27;20576;-47
2023/07/25 10:42:47;;;;;;;3.30;1.90;;;20.20;99.90;;;;;;5131806;27;20413;-46
2023/07/25 10:45:27;;;;;;;2.60;2.17;;;20.00;99.90;;;;;;5133691;27;20884;-48
2023/07/25 10:47:54;;;;;;;2.73;2.13;;;19.60;99.90;;;;;;5134411;27;20542;-46
2023/07/25 10:50:24;;;;;;;4.83;2.50;;;19.40;99.90;;;;;;5136026;27;20500;-46
2023/07/25 10:52:49;;;;;;;4.67;2.83;;;19.30;99.90;;;;;;5131570;27;20552;-47
2023/07/25 10:55:15;;;;;;;4.40;2.37;;;19.10;99.90;;;;;;5113199;27;20926;-46
2023/07/25 10:57:41;;;;;;;3.07;2.27;;;19.00;1.00;;;;;;5130730;27;20183;-46
2023/07/25 11:00:09;;;;;;;2.40;2.00;;;19.00;99.90;;;;;;5132336;27;20515;-45
2023/07/25 11:02:36;;;;;;;2.67;1.70;;;19.10;99.90;;;;;;5096163;27;20626;-46
2023/07/25 11:05:14;;;;;;;3.57;1.70;;;19.20;99.90;;;;;;5124699;27;20550;-45
2023/07/25 11:07:48;;;;;;;1.90;1.70;;;19.40;1.00;;;;;;5112902;28;20899;-45
2023/07/25 11:10:24;;;;;;;2.43;1.70;;;19.80;1.00;;;;;;5112881;28;20413;-45
2023/07/25 11:12:52;;;;;;;1.70;1.60;;;20.40;1.00;;;;;;5112772;28;20433;-46
2023/07/25 11:15:21;;;;;;;2.20;1.60;;;20.90;1.00;;;;;;5111998;28;20697;-46
2023/07/25 11:17:48;;;;;;;2.40;1.33;;;21.70;99.90;;;;;;5112475;28;20429;-49
2023/07/25 11:20:22;;;;;;;3.17;1.50;;;22.00;1.00;;;;;;5112874;28;20590;-47
2023/07/25 11:22:49;;;;;;;2.47;2.00;;;22.10;99.90;;;;;;5114162;28;20642;-46
2023/07/25 11:25:15;;;;;;;2.27;1.40;;;22.20;99.90;;;;;;5095841;28;20461;-45
2023/07/25 11:27:43;;;;;;;2.87;1.37;;;22.00;99.90;;;;;;5113378;28;20524;-49
2023/07/25 11:30:09;;;;;;;1.73;1.30;;;22.40;99.90;;;;;;5113416;28;20437;-46
2023/07/25 11:32:35;;;;;;;3.73;1.83;;;22.40;99.90;;;;;;5118722;27;20447;-46
2023/07/25 11:35:02;;;;;;;1.70;1.40;;;22.10;99.90;;;;;;5135219;27;20444;-49
2023/07/25 11:37:33;;;;;;;1.73;1.43;;;21.60;99.90;;;;;;5136093;27;20183;-48
2023/07/25 11:40:19;;;;;;;2.07;1.47;;;21.40;99.90;;;;;;5135426;27;20427;-48
2023/07/25 11:42:47;;;;;;;2.40;1.40;;;21.10;99.90;;;;;;5133124;27;20643;-46
2023/07/25 11:45:14;;;;;;;2.33;1.83;;;20.80;99.90;;;;;;5132819;27;20571;-46
2023/07/25 11:47:42;;;;;;;2.47;1.47;;;21.00;99.90;;;;;;5132021;27;20694;-45
2023/07/25 11:50:09;;;;;;;2.50;1.73;;;21.10;99.90;;;;;;5132748;27;20431;-45
2023/07/25 11:52:36;;;;;;;1.70;1.47;;;21.50;99.90;;;;;;5111096;27;20499;-46
2023/07/25 11:55:04;;;;;;;2.03;1.70;;;22.20;99.90;;;;;;5132440;27;20679;-45
2023/07/25 11:57:30;;;;;;;2.03;1.63;;;22.60;99.90;;;;;;5130818;27;20539;-46
2023/07/25 11:59:56;;;;;;;1.50;1.30;;;22.80;45.50;;;;;;5131526;27;20499;-47
2023/07/25 12:02:26;;;;;;;3.17;1.70;;;22.70;1.00;;;;;;5112436;27;20466;-46
2023/07/25 12:04:52;;;;;;;2.10;1.30;;;22.40;1.00;;;;;;5092964;27;20444;-46
2023/07/25 12:07:18;;;;;;;2.43;1.50;;;22.10;1.00;;;;;;5129377;27;20581;-49
2023/07/25 12:09:53;;;;;;;2.10;1.13;;;22.10;1.00;;;;;;5091341;27;20563;-45
2023/07/25 12:12:22;;;;;;;2.23;1.00;;;21.90;1.00;;;;;;5128258;27;20423;-45
2023/07/25 12:14:59;;;;;;;1.03;0.53;;;21.90;1.00;;;;;;5129493;27;20509;-49
2023/07/25 12:17:40;;;;;;;2.53;1.17;;;21.70;1.00;;;;;;5129789;27;20527;-49
2023/07/25 12:20:16;;;;;;;1.43;0.90;;;21.60;4.70;;;;;;5130372;27;20421;-47
2023/07/25 12:22:42;;;;;;;1.70;1.00;;;21.40;19.30;;;;;;5130295;27;20433;-45
2023/07/25 12:25:08;;;;;;;1.33;0.90;;;21.10;61.60;;;;;;5112931;27;20563;-49
2023/07/25 12:27:34;;;;;;;2.43;1.27;;;20.80;99.90;;;;;;5112676;27;20179;-47
2023/07/25 12:29:59;;;;;;;2.43;0.97;;;20.50;99.90;;;;;;5133861;27;20492;-45
2023/07/25 12:32:25;;;;;;;2.43;1.40;;;20.40;99.90;;;;;;5133395;27;20547;-47
2023/07/25 12:34:51;;;;;;;2.23;1.63;;;20.30;99.90;;;;;;5133189;27;20218;-47
2023/07/25 12:37:16;;;;;;;2.20;1.20;;;20.40;99.90;;;;;;5134717;27;20175;-47
2023/07/25 12:39:45;;;;;;;3.17;1.10;;;20.80;1.00;;;;;;5134729;27;20534;-45
2023/07/25 12:42:10;;;;;;;2.33;1.10;;;21.20;99.90;;;;;;5132059;27;20167;-47
2023/07/25 12:44:36;;;;;;;1.97;1.30;;;21.50;99.90;;;;;;5132053;27;20419;-45
2023/07/25 12:47:02;;;;;;;1.83;1.20;;;22.00;99.90;;;;;;5131166;27;20520;-47
2023/07/25 12:49:28;;;;;;;1.97;1.00;;;22.50;33.90;;;;;;5130180;27;20183;-45
2023/07/25 12:51:53;;;;;;;1.20;0.77;;;22.70;14.90;;;;;;5130743;27;20291;-45